Airfield :
LOGIN :

Register | Disclaimer

   EN    FR    IT 

 










Legend :    VFR   Marginal VFR   IFR   Intensive IFR   Very Intensive IFR
Visi :
Ceiling :
>= 8 km
>= 3000ft
5 to 8 km
1000 to 3000 ft
1500m to 5 km
500 to 1000 ft
800 to 1500m
200 to 500 ft
< 800m
< 200 ft
Symbols :   Thunderstorms  Fog  Heavy snow  Heavy precipitations  Wind > 20 kt
SIGMETs :     Misc.  Thunderstorms  Icing  Turbulence  Mountain Waves  Volcanic Ashes






- Airport Elevation : 138 ft
- IATA code : RLG


ETNL - Rostock Laage

CURRENT METAR :
  • 250838Z 31010KT 9999 -RADZ BKN013 11/08 Q1026 GRN WHT TEMPO GRN

EXPIRED METARs :
  • 250820Z 30010KT 9999 -RADZ BKN015 11/08 Q1026 WHT WHT
  • 250720Z 31016G26KT 9999 -RADZ BKN015 12/08 Q1025 WHT WHT TEMPO GRN
  • 250705Z 31014KT 9999 BKN015 11/08 Q1024 WHT BLU TEMPO GRN
  • 250620Z 29011KT 9999 FEW009 BKN013 10/08 Q1024 GRN BLU TEMPO GRN

TAF TAF ETNL
Valid from the 25 at 08:00 until the 25 at 17:00 UTC


250725Z 2508/2517 31012G22KT 9999 NSW BKN020
TEMPO 2508/2509 31015G25KT 7000 -RADZ BKN010
TEMPO 2509/2517 32015G25KT 9999 NSW BKN030 BY ETGL



MET'MAP, your aeronautical weather chart ! - Copyright ORBIFLY December 2007 - Disclaimer

ORBIFLY MET'MAP TEAM :

Programming & Development : Alexandra Zaïnal
Concept & original design : Baudouin d'Aumeries
Assistance for programming : Marc-Olivier Méhu
Technical & hardware support : Manuel Goepfert

Contact : metmap@orbifly.com




SOURCES & CREDITS :

   NOAA